<?xml version="1.0" encoding="utf-8"?>
<gpx xmlns:xsi="http://www.w3.org/2001/XMLSchema-instance" xmlns:xsd="http://www.w3.org/2001/XMLSchema" version="1.1" creator="Shapelink.com" xmlns="http://www.topografix.com/GPX/1/1" xmlns:gpxtpx="http://www.garmin.com/xmlschemas/TrackPointExtension/v1">
  <metadata>
    <name>Övrigt 1.72 km, 2020-06-08</name>
    <desc></desc>
    <author><name>Marian Moron</name></author> 
    <time>2020-06-08T19:47:23Z</time>
  </metadata>
  <trk>
    <name>Övrigt 1.72 km, 2020-06-08</name>
    <trkseg>
      <trkpt lat="51.230726424495" lon="4.459463412129">
        <ele>20.8</ele>
        <time>2020-06-08T19:47:23Z</time>
      </trkpt>
      <trkpt lat="51.230655681259" lon="4.459893738875">
        <ele>22.8</ele>
        <time>2020-06-08T19:48:38Z</time>
      </trkpt>
      <trkpt lat="51.230796832455" lon="4.460489524327">
        <ele>20.8</ele>
        <time>2020-06-08T19:49:28Z</time>
      </trkpt>
      <trkpt lat="51.230924572611" lon="4.461144988907">
        <ele>14</ele>
        <time>2020-06-08T19:50:11Z</time>
      </trkpt>
      <trkpt lat="51.23122305207" lon="4.461591911815">
        <ele>11.4</ele>
        <time>2020-06-08T19:51:06Z</time>
      </trkpt>
      <trkpt lat="51.231614151524" lon="4.461683106887">
        <ele>6.8</ele>
        <time>2020-06-08T19:52:09Z</time>
      </trkpt>
      <trkpt lat="51.231668466236" lon="4.462332201223">
        <ele>13.2</ele>
        <time>2020-06-08T19:52:50Z</time>
      </trkpt>
      <trkpt lat="51.23164885259" lon="4.463008452915">
        <ele>10.4</ele>
        <time>2020-06-08T19:53:58Z</time>
      </trkpt>
      <trkpt lat="51.231673746833" lon="4.463466188474">
        <ele>20.2</ele>
        <time>2020-06-08T19:55:05Z</time>
      </trkpt>
      <trkpt lat="51.232074150196" lon="4.463769697073">
        <ele>11.4</ele>
        <time>2020-06-08T19:55:50Z</time>
      </trkpt>
      <trkpt lat="51.232418897743" lon="4.4639736287">
        <ele>13</ele>
        <time>2020-06-08T19:56:21Z</time>
      </trkpt>
      <trkpt lat="51.232382185021" lon="4.463265274331">
        <ele>7.4</ele>
        <time>2020-06-08T19:57:06Z</time>
      </trkpt>
      <trkpt lat="51.232164255621" lon="4.462712488026">
        <ele>17.6</ele>
        <time>2020-06-08T19:57:54Z</time>
      </trkpt>
      <trkpt lat="51.232154532617" lon="4.462058951283">
        <ele>6.6</ele>
        <time>2020-06-08T19:59:12Z</time>
      </trkpt>
      <trkpt lat="51.231997958725" lon="4.461491496653">
        <ele>1</ele>
        <time>2020-06-08T20:00:31Z</time>
      </trkpt>
      <trkpt lat="51.231945068936" lon="4.460751793978">
        <ele>5.4</ele>
        <time>2020-06-08T20:01:14Z</time>
      </trkpt>
      <trkpt lat="51.231838451168" lon="4.460046205636">
        <ele>5.4</ele>
        <time>2020-06-08T20:01:51Z</time>
      </trkpt>
      <trkpt lat="51.231705681872" lon="4.459362996967">
        <ele>5</ele>
        <time>2020-06-08T20:02:34Z</time>
      </trkpt>
      <trkpt lat="51.231568302531" lon="4.458708202939">
        <ele>3.4</ele>
        <time>2020-06-08T20:03:16Z</time>
      </trkpt>
      <trkpt lat="51.231249455055" lon="4.458517179438">
        <ele>12.8</ele>
        <time>2020-06-08T20:03:55Z</time>
      </trkpt>
      <trkpt lat="51.231218106749" lon="4.457819302444">
        <ele>12.4</ele>
        <time>2020-06-08T20:04:41Z</time>
      </trkpt>
      <trkpt lat="51.231209892487" lon="4.457142044924">
        <ele>14</ele>
        <time>2020-06-08T20:05:30Z</time>
      </trkpt>
      <trkpt lat="51.231315169151" lon="4.4563880092">
        <ele>10.6</ele>
        <time>2020-06-08T20:06:08Z</time>
      </trkpt>
      <trkpt lat="51.230908479363" lon="4.456349117184">
        <ele>21.6</ele>
        <time>2020-06-08T20:06:53Z</time>
      </trkpt>
      <trkpt lat="51.230481505377" lon="4.456537039382">
        <ele>19.4</ele>
        <time>2020-06-08T20:07:48Z</time>
      </trkpt>
      <trkpt lat="51.230085209145" lon="4.456732002376">
        <ele>6.2</ele>
        <time>2020-06-08T20:08:48Z</time>
      </trkpt>
      <trkpt lat="51.229643985929" lon="4.45687918854">
        <ele>4.6</ele>
        <time>2020-06-08T20:09:29Z</time>
      </trkpt>
      <trkpt lat="51.229183987257" lon="4.45693870003">
        <ele>15.6</ele>
        <time>2020-06-08T20:10:06Z</time>
      </trkpt>
      <trkpt lat="51.228746871172" lon="4.457091418248">
        <ele>8.4</ele>
        <time>2020-06-08T20:10:44Z</time>
      </trkpt>
      <trkpt lat="51.228348730922" lon="4.457392328458">
        <ele>2</ele>
        <time>2020-06-08T20:11:25Z</time>
      </trkpt>
      <trkpt lat="51.228595494058" lon="4.458005296805">
        <ele>15.2</ele>
        <time>2020-06-08T20:12:36Z</time>
      </trkpt>
      <trkpt lat="51.228875700975" lon="4.458195063021">
        <ele>9.6</ele>
        <time>2020-06-08T20:13:43Z</time>
      </trkpt>
      <trkpt lat="51.229311224499" lon="4.457977552716">
        <ele>3.6</ele>
        <time>2020-06-08T20:14:30Z</time>
      </trkpt>
      <trkpt lat="51.229700312297" lon="4.457903289082">
        <ele>2.2</ele>
        <time>2020-06-08T20:15:26Z</time>
      </trkpt>
    </trkseg>
  </trk>
</gpx>